createdAt,value
2022-10-22T00:00:54.323Z,100299.44
2022-10-22T00:03:20.728Z,100293.88
2022-10-22T00:05:47.873Z,100294.50
2022-10-22T00:08:14.445Z,100298.38
2022-10-22T00:10:41.018Z,100308.66
2022-10-22T00:13:07.647Z,100303.38
2022-10-22T00:15:34.083Z,100319.22
2022-10-22T00:18:00.443Z,100320.78
2022-10-22T00:20:26.814Z,100313.78
2022-10-22T00:22:53.272Z,100311.09
2022-10-22T00:25:19.692Z,100320.69
2022-10-22T00:27:46.043Z,100316.47
2022-10-22T00:30:12.575Z,100312.34
2022-10-22T00:32:39.264Z,100319.06
2022-10-22T00:35:06.227Z,100318.19
2022-10-22T00:37:32.591Z,100318.44
2022-10-22T00:39:58.961Z,100320.22
2022-10-22T00:42:26.699Z,100326.88
2022-10-22T00:45:07.510Z,100323.09
2022-10-22T00:48:10.109Z,100327.78
2022-10-22T00:50:52.976Z,100331.44
2022-10-22T00:53:22.324Z,100336.53
2022-10-22T00:55:52.736Z,100332.44
2022-10-22T00:58:21.153Z,100337.91
2022-10-22T01:00:48.298Z,100332.34
2022-10-22T01:03:15.231Z,100322.81
2022-10-22T01:05:50.887Z,100325.50
2022-10-22T01:08:26.068Z,100313.41
2022-10-22T01:11:06.940Z,100324.19
2022-10-22T01:14:07.749Z,100319.88
2022-10-22T01:17:04.889Z,100313.94
2022-10-22T01:20:28.583Z,100314.88
2022-10-22T01:23:15.871Z,100301.22
2022-10-22T01:25:53.936Z,100299.63
2022-10-22T01:28:36.938Z,100293.88
2022-10-22T01:31:04.597Z,100300.53
2022-10-22T01:33:31.171Z,100304.75
2022-10-22T01:35:57.552Z,100313.16
2022-10-22T01:38:25.111Z,100301.34
2022-10-22T01:40:51.940Z,100296.25
2022-10-22T01:43:18.432Z,100296.56
2022-10-22T01:45:54.010Z,100283.91
2022-10-22T01:48:35.657Z,100291.44
2022-10-22T01:51:46.653Z,100297.78
2022-10-22T01:54:37.891Z,100285.88
2022-10-22T01:57:22.260Z,100284.53
2022-10-22T02:00:09.827Z,100277.09
2022-10-22T02:02:56.598Z,100284.78
2022-10-22T02:05:49.991Z,100277.28
2022-10-22T02:08:22.994Z,100266.25
2022-10-22T02:10:50.288Z,100271.28
2022-10-22T02:13:22.608Z,100274.75
2022-10-22T02:15:50.776Z,100272.59
2022-10-22T02:18:20.004Z,100269.63
2022-10-22T02:20:46.418Z,100270.53
2022-10-22T02:23:13.236Z,100274.13
2022-10-22T02:25:41.507Z,100282.06
2022-10-22T02:28:20.173Z,100269.88
2022-10-22T02:30:54.837Z,100276.00
2022-10-22T02:33:28.854Z,100286.88
2022-10-22T02:35:55.829Z,100287.50
2022-10-22T02:38:23.689Z,100291.44
2022-10-22T02:40:50.072Z,100286.50
2022-10-22T02:43:18.179Z,100292.34
2022-10-22T02:45:44.897Z,100295.03
2022-10-22T02:48:11.533Z,100295.50
2022-10-22T02:50:37.954Z,100302.56
2022-10-22T02:53:04.306Z,100297.00
2022-10-22T02:55:30.661Z,100301.31
2022-10-22T02:57:57.029Z,100306.84
2022-10-22T03:00:23.403Z,100299.25
2022-10-22T03:02:49.775Z,100308.66
2022-10-22T03:05:16.224Z,100295.66
2022-10-22T03:07:42.904Z,100296.75
2022-10-22T03:10:09.818Z,100298.09
2022-10-22T03:12:36.195Z,100303.28
2022-10-22T03:15:02.599Z,100299.69
2022-10-22T03:17:28.976Z,100304.06
2022-10-22T03:19:55.352Z,100307.59
2022-10-22T03:22:27.719Z,100300.44
2022-10-22T03:24:58.004Z,100305.59
2022-10-22T03:27:24.936Z,100308.97
2022-10-22T03:29:51.878Z,100306.00
2022-10-22T03:32:18.542Z,100309.59
2022-10-22T03:34:44.938Z,100303.59
2022-10-22T03:37:11.475Z,100315.78
2022-10-22T03:39:37.890Z,100311.84
2022-10-22T03:42:05.530Z,100313.09
2022-10-22T03:44:32.688Z,100308.59
2022-10-22T03:47:01.764Z,100316.81
2022-10-22T03:49:29.251Z,100322.53
2022-10-22T03:51:55.814Z,100326.41
2022-10-22T03:54:22.188Z,100328.38
2022-10-22T03:56:48.557Z,100319.31
2022-10-22T03:59:15.042Z,100325.22
2022-10-22T04:01:41.586Z,100333.00
2022-10-22T04:04:08.019Z,100328.81
2022-10-22T04:06:34.386Z,100334.53
2022-10-22T04:09:02.040Z,100339.59
2022-10-22T04:11:28.461Z,100344.06
2022-10-22T04:13:54.819Z,100343.44
2022-10-22T04:16:25.002Z,100342.66
2022-10-22T04:18:53.806Z,100349.41
2022-10-22T04:21:21.020Z,100347.94
2022-10-22T04:23:49.191Z,100342.19
2022-10-22T04:26:15.824Z,100352.38
2022-10-22T04:28:42.451Z,100346.97
2022-10-22T04:31:14.335Z,100342.00
2022-10-22T04:33:41.491Z,100343.63
2022-10-22T04:36:09.472Z,100351.28
2022-10-22T04:38:35.901Z,100347.78
2022-10-22T04:41:19.444Z,100346.88
2022-10-22T04:43:46.343Z,100346.16
2022-10-22T04:46:13.686Z,100351.25
2022-10-22T04:48:41.408Z,100346.97
2022-10-22T04:51:10.197Z,100344.00
2022-10-22T04:53:36.832Z,100347.19
2022-10-22T04:56:11.746Z,100338.72
2022-10-22T04:58:38.638Z,100343.03
2022-10-22T05:01:14.506Z,100342.09
2022-10-22T05:03:41.643Z,100345.31
2022-10-22T05:06:08.695Z,100346.03
2022-10-22T05:08:35.207Z,100343.63
2022-10-22T05:11:01.632Z,100354.91
2022-10-22T05:13:28.011Z,100359.13
2022-10-22T05:15:54.394Z,100356.13
2022-10-22T05:18:22.577Z,100355.56
2022-10-22T05:20:49.151Z,100348.88
2022-10-22T05:23:15.504Z,100353.50
2022-10-22T05:25:41.930Z,100360.94
2022-10-22T05:28:08.309Z,100366.41
2022-10-22T05:30:35.222Z,100362.22
2022-10-22T05:33:01.620Z,100365.50
2022-10-22T05:35:27.976Z,100374.25
2022-10-22T05:37:54.410Z,100377.16
2022-10-22T05:40:30.382Z,100368.44
2022-10-22T05:42:58.520Z,100373.84
2022-10-22T05:45:24.904Z,100380.13
2022-10-22T05:47:51.295Z,100379.50
2022-10-22T05:50:17.644Z,100384.03
2022-10-22T05:52:44.083Z,100386.94
2022-10-22T05:55:10.468Z,100389.97
2022-10-22T05:57:36.828Z,100397.69
2022-10-22T06:00:03.913Z,100405.56
2022-10-22T06:02:30.362Z,100407.06
2022-10-22T06:04:56.826Z,100406.16
2022-10-22T06:07:23.241Z,100403.56
2022-10-22T06:09:50.231Z,100411.06
2022-10-22T06:12:16.807Z,100410.47
2022-10-22T06:14:43.171Z,100412.38
2022-10-22T06:17:09.860Z,100421.44
2022-10-22T06:19:36.360Z,100424.03
2022-10-22T06:22:04.256Z,100419.13
2022-10-22T06:24:30.884Z,100434.22
2022-10-22T06:26:57.254Z,100429.63
2022-10-22T06:29:23.625Z,100444.59
2022-10-22T06:31:50.041Z,100449.38
2022-10-22T06:34:18.769Z,100453.13
2022-10-22T06:36:45.861Z,100454.06
2022-10-22T06:39:13.657Z,100463.50
2022-10-22T06:41:40.207Z,100464.00
2022-10-22T06:44:06.975Z,100463.47
2022-10-22T06:46:33.327Z,100469.22
2022-10-22T06:49:01.584Z,100472.28
2022-10-22T06:51:28.530Z,100474.88
2022-10-22T06:53:56.027Z,100478.81
2022-10-22T06:56:24.289Z,100481.03
2022-10-22T06:58:51.704Z,100488.38
2022-10-22T07:01:20.826Z,100484.16
2022-10-22T07:03:47.622Z,100484.34
2022-10-22T07:06:15.046Z,100492.00
2022-10-22T07:08:42.214Z,100493.97
2022-10-22T07:11:11.236Z,100498.19
2022-10-22T07:13:37.876Z,100510.44
2022-10-22T07:16:05.495Z,100508.81
2022-10-22T07:18:33.689Z,100512.03
2022-10-22T07:21:00.276Z,100515.28
2022-10-22T07:23:27.578Z,100518.56
2022-10-22T07:25:54.185Z,100510.84
2022-10-22T07:28:20.683Z,100508.84
2022-10-22T07:30:47.276Z,100513.28
2022-10-22T07:33:13.663Z,100519.19
2022-10-22T07:35:40.419Z,100522.16
2022-10-22T07:38:08.199Z,100519.69
2022-10-22T07:40:35.292Z,100519.47
2022-10-22T07:43:02.256Z,100522.56
2022-10-22T07:45:28.641Z,100527.94
2022-10-22T07:47:55.022Z,100522.88
2022-10-22T07:50:21.732Z,100516.38
2022-10-22T07:52:48.104Z,100511.31
2022-10-22T07:55:14.487Z,100513.13
2022-10-22T07:57:41.071Z,100518.00
2022-10-22T08:00:08.908Z,100522.78
2022-10-22T08:02:35.464Z,100518.31
2022-10-22T08:05:01.820Z,100512.75
2022-10-22T08:07:28.268Z,100513.38
2022-10-22T08:09:54.762Z,100516.69
2022-10-22T08:12:21.558Z,100512.66
2022-10-22T08:14:47.928Z,100516.47
2022-10-22T08:17:14.281Z,100521.72
2022-10-22T08:19:40.647Z,100522.94
2022-10-22T08:22:07.004Z,100524.13
2022-10-22T08:24:33.564Z,100521.44
2022-10-22T08:26:59.927Z,100522.88
2022-10-22T08:29:26.783Z,100520.16
2022-10-22T08:31:53.799Z,100512.31
2022-10-22T08:34:20.414Z,100525.38
2022-10-22T08:36:46.839Z,100521.94
2022-10-22T08:39:13.321Z,100520.44
2022-10-22T08:41:48.907Z,100527.72
2022-10-22T08:44:36.928Z,100522.53
2022-10-22T08:47:09.254Z,100529.63
2022-10-22T08:49:39.866Z,100535.75
2022-10-22T08:52:13.892Z,100540.66
2022-10-22T08:54:53.028Z,100538.34
2022-10-22T08:57:39.089Z,100541.44
2022-10-22T09:00:21.830Z,100540.41
2022-10-22T09:02:51.023Z,100546.25
2022-10-22T09:05:41.771Z,100547.38
2022-10-22T09:08:12.576Z,100551.91
2022-10-22T09:10:40.880Z,100552.75
2022-10-22T09:13:10.245Z,100554.94
2022-10-22T09:15:37.514Z,100558.13
2022-10-22T09:18:25.298Z,100571.66
2022-10-22T09:21:10.963Z,100569.41
2022-10-22T09:23:44.287Z,100568.09
2022-10-22T09:26:15.046Z,100575.25
2022-10-22T09:28:41.914Z,100576.41
2022-10-22T09:31:11.606Z,100577.03
2022-10-22T09:33:37.979Z,100580.16
2022-10-22T09:36:06.829Z,100574.50
2022-10-22T09:38:48.819Z,100580.53
2022-10-22T09:41:15.590Z,100580.59
2022-10-22T09:43:41.949Z,100588.00
2022-10-22T09:46:17.112Z,100585.38
2022-10-22T09:48:52.271Z,100592.25
2022-10-22T09:51:41.300Z,100595.75
2022-10-22T09:54:38.560Z,100600.31
2022-10-22T09:57:10.869Z,100602.78
2022-10-22T09:59:38.123Z,100595.75
2022-10-22T10:02:26.578Z,100605.31
2022-10-22T10:05:03.578Z,100598.66
2022-10-22T10:07:31.512Z,100604.75
2022-10-22T10:09:58.147Z,100607.13
2022-10-22T10:12:40.346Z,100610.56
2022-10-22T10:15:29.015Z,100611.75
2022-10-22T10:18:04.408Z,100610.53
2022-10-22T10:21:07.388Z,100614.53
2022-10-22T10:23:57.505Z,100613.03
2022-10-22T10:26:33.746Z,100612.69
2022-10-22T10:29:10.208Z,100624.94
2022-10-22T10:31:58.104Z,100624.47
2022-10-22T10:35:11.405Z,100634.78
2022-10-22T10:38:02.409Z,100639.06
2022-10-22T10:40:40.992Z,100638.00
2022-10-22T10:43:11.187Z,100644.94
2022-10-22T10:45:55.489Z,100642.47
2022-10-22T10:48:53.117Z,100640.53
2022-10-22T10:51:47.233Z,100643.38
2022-10-22T10:54:27.872Z,100644.19
2022-10-22T10:56:57.902Z,100644.03
2022-10-22T10:59:39.451Z,100645.53
2022-10-22T11:02:36.194Z,100646.91
2022-10-22T11:05:14.608Z,100646.56
2022-10-22T11:07:47.995Z,100643.38
2022-10-22T11:10:36.737Z,100650.78
2022-10-22T11:13:28.319Z,100648.66
2022-10-22T11:16:24.949Z,100632.56
2022-10-22T11:19:33.181Z,100636.94
2022-10-22T11:22:07.274Z,100634.75
2022-10-22T11:24:53.725Z,100632.44
2022-10-22T11:27:33.878Z,100639.16
2022-10-22T11:30:11.951Z,100636.91
2022-10-22T11:32:39.793Z,100635.06
2022-10-22T11:35:09.495Z,100635.16
2022-10-22T11:37:38.744Z,100640.66
2022-10-22T11:40:08.306Z,100635.84
2022-10-22T11:42:41.691Z,100638.63
2022-10-22T11:45:14.240Z,100634.03
2022-10-22T11:47:59.083Z,100636.72
2022-10-22T11:50:43.955Z,100633.78
2022-10-22T11:53:13.462Z,100637.41
2022-10-22T11:55:45.298Z,100647.13
2022-10-22T11:58:30.588Z,100643.06
2022-10-22T12:01:12.596Z,100640.53
2022-10-22T12:03:42.265Z,100646.16
2022-10-22T12:06:11.637Z,100659.84
2022-10-22T12:08:48.470Z,100650.63
2022-10-22T12:11:21.929Z,100653.50
2022-10-22T12:14:15.408Z,100646.50
2022-10-22T12:17:07.197Z,100647.81
2022-10-22T12:19:49.963Z,100644.66
2022-10-22T12:22:26.290Z,100644.03
2022-10-22T12:24:54.796Z,100652.09
2022-10-22T12:27:24.111Z,100643.97
2022-10-22T12:29:58.536Z,100634.56
2022-10-22T12:32:34.847Z,100634.09
2022-10-22T12:35:05.709Z,100630.31
2022-10-22T12:37:35.232Z,100626.75
2022-10-22T12:40:01.695Z,100631.94
2022-10-22T12:42:28.055Z,100638.66
2022-10-22T12:44:55.887Z,100632.53
2022-10-22T12:47:22.346Z,100630.66
2022-10-22T12:49:50.395Z,100633.63
2022-10-22T12:52:21.687Z,100631.28
2022-10-22T12:54:50.430Z,100629.28
2022-10-22T12:57:18.816Z,100628.03
2022-10-22T12:59:49.960Z,100623.97
2022-10-22T13:02:27.877Z,100636.53
2022-10-22T13:05:13.829Z,100640.41
2022-10-22T13:07:43.038Z,100632.38
2022-10-22T13:10:35.415Z,100637.66
2022-10-22T13:13:06.756Z,100636.09
2022-10-22T13:15:36.302Z,100644.91
2022-10-22T13:18:16.814Z,100643.97
2022-10-22T13:21:02.499Z,100643.34
2022-10-22T13:23:30.953Z,100639.53
2022-10-22T13:26:04.616Z,100638.94
2022-10-22T13:28:32.174Z,100631.63
2022-10-22T13:31:01.068Z,100641.91
2022-10-22T13:33:30.681Z,100638.78
2022-10-22T13:35:57.095Z,100647.75
2022-10-22T13:38:25.288Z,100641.91
2022-10-22T13:40:51.944Z,100645.63
2022-10-22T13:43:18.794Z,100649.63
2022-10-22T13:45:46.785Z,100647.41
2022-10-22T13:48:15.689Z,100659.56
2022-10-22T13:50:42.674Z,100658.59
2022-10-22T13:53:18.757Z,100667.47
2022-10-22T13:55:46.108Z,100663.66
2022-10-22T14:00:51.949Z,100672.28
2022-10-22T14:03:20.647Z,100674.03
2022-10-22T14:05:48.264Z,100667.06
2022-10-22T14:08:17.029Z,100673.75
2022-10-22T14:10:43.732Z,100677.13
2022-10-22T14:13:10.641Z,100678.31
2022-10-22T14:15:37.412Z,100680.47
2022-10-22T14:18:04.988Z,100691.06
2022-10-22T14:20:33.864Z,100685.31
2022-10-22T14:23:19.568Z,100689.84
2022-10-22T14:25:46.320Z,100687.50
2022-10-22T14:28:12.779Z,100687.19
2022-10-22T14:30:40.215Z,100681.34
2022-10-22T14:33:32.061Z,100688.78
2022-10-22T14:35:59.874Z,100685.47
2022-10-22T14:38:26.780Z,100686.44
2022-10-22T14:40:53.161Z,100684.66
2022-10-22T14:43:25.195Z,100688.78
2022-10-22T14:45:52.093Z,100691.38
2022-10-22T14:50:50.765Z,100682.19
2022-10-22T14:53:17.172Z,100680.19
2022-10-22T14:55:44.974Z,100686.13
2022-10-22T14:58:12.282Z,100683.69
2022-10-22T15:00:41.414Z,100681.44
2022-10-22T15:03:07.840Z,100686.59
2022-10-22T15:05:36.108Z,100681.06
2022-10-22T15:08:02.485Z,100693.66
2022-10-22T15:10:28.932Z,100683.63
2022-10-22T15:12:55.309Z,100692.16
2022-10-22T15:15:22.868Z,100692.97
2022-10-22T15:17:50.183Z,100687.63
2022-10-22T15:20:16.588Z,100691.31
2022-10-22T15:22:43.259Z,100695.63
2022-10-22T15:25:10.520Z,100699.13
2022-10-22T15:27:36.908Z,100701.75
2022-10-22T15:30:04.266Z,100696.59
2022-10-22T15:32:32.227Z,100690.97
2022-10-22T15:34:58.729Z,100698.16
2022-10-22T15:37:25.131Z,100702.28
2022-10-22T15:39:51.496Z,100703.97
2022-10-22T15:42:18.879Z,100708.75
2022-10-22T15:44:45.369Z,100700.78
2022-10-22T15:47:11.775Z,100705.41
2022-10-22T15:49:39.188Z,100718.91
2022-10-22T15:52:06.298Z,100718.91
2022-10-22T15:54:33.058Z,100713.25
2022-10-22T15:57:01.787Z,100707.69
2022-10-22T15:59:28.163Z,100720.88
2022-10-22T16:01:54.511Z,100718.75
2022-10-22T16:04:20.907Z,100715.66
2022-10-22T16:06:49.348Z,100718.09
2022-10-22T16:09:21.964Z,100727.81
2022-10-22T16:11:49.079Z,100722.44
2022-10-22T16:14:17.069Z,100723.16
2022-10-22T16:16:45.516Z,100725.50
2022-10-22T16:19:13.158Z,100731.84
2022-10-22T16:21:39.661Z,100737.53
2022-10-22T16:24:07.583Z,100737.09
2022-10-22T16:26:34.516Z,100736.75
2022-10-22T16:29:00.980Z,100737.84
2022-10-22T16:31:27.364Z,100740.91
2022-10-22T16:33:54.591Z,100747.75
2022-10-22T16:36:21.230Z,100744.75
2022-10-22T16:38:48.410Z,100747.19
2022-10-22T16:41:17.008Z,100746.66
2022-10-22T16:43:46.863Z,100752.41
2022-10-22T16:46:13.236Z,100759.03
2022-10-22T16:48:41.962Z,100758.47
2022-10-22T16:51:10.340Z,100765.94
2022-10-22T16:53:37.007Z,100757.84
2022-10-22T16:56:03.529Z,100755.41
2022-10-22T16:58:30.009Z,100767.41
2022-10-22T17:00:56.428Z,100768.63
2022-10-22T17:03:24.598Z,100773.78
2022-10-22T17:05:53.935Z,100768.03
2022-10-22T17:08:20.315Z,100768.03
2022-10-22T17:10:46.752Z,100765.44
2022-10-22T17:13:13.116Z,100778.44
2022-10-22T17:15:40.402Z,100772.94
2022-10-22T17:18:06.796Z,100780.56
2022-10-22T17:20:33.176Z,100774.66
2022-10-22T17:22:59.533Z,100780.47
2022-10-22T17:25:35.330Z,100781.75
2022-10-22T17:28:01.680Z,100774.03
2022-10-22T17:30:28.752Z,100783.06
2022-10-22T17:32:55.114Z,100786.75
2022-10-22T17:35:21.516Z,100788.44
2022-10-22T17:37:48.004Z,100789.75
2022-10-22T17:40:15.540Z,100793.78
2022-10-22T17:42:42.146Z,100793.56
2022-10-22T17:45:08.892Z,100793.56
2022-10-22T17:47:36.146Z,100792.69
2022-10-22T17:50:02.514Z,100800.38
2022-10-22T17:52:28.874Z,100804.88
2022-10-22T17:54:55.335Z,100804.69
2022-10-22T17:57:21.722Z,100802.78
2022-10-22T17:59:48.084Z,100802.28
2022-10-22T18:02:16.349Z,100803.47
2022-10-22T18:04:43.000Z,100805.97
2022-10-22T18:07:09.571Z,100803.69
2022-10-22T18:09:36.031Z,100805.38
2022-10-22T18:12:02.397Z,100810.75
2022-10-22T18:14:28.791Z,100815.75
2022-10-22T18:16:55.172Z,100817.53
2022-10-22T18:19:23.161Z,100818.81
2022-10-22T18:21:49.552Z,100821.53
2022-10-22T18:24:16.515Z,100818.19
2022-10-22T18:26:43.458Z,100818.00
2022-10-22T18:29:11.689Z,100820.28
2022-10-22T18:31:38.139Z,100816.06
2022-10-22T18:34:04.499Z,100817.44
2022-10-22T18:36:30.915Z,100815.25
2022-10-22T18:38:59.759Z,100812.91
2022-10-22T18:41:27.057Z,100825.00
2022-10-22T18:43:55.571Z,100817.09
2022-10-22T18:46:23.845Z,100822.28
2022-10-22T18:48:52.982Z,100822.88
2022-10-22T18:51:19.523Z,100831.75
2022-10-22T18:53:58.942Z,100837.47
2022-10-22T18:56:32.211Z,100830.78
2022-10-22T18:58:58.566Z,100829.16
2022-10-22T19:01:29.198Z,100832.22
2022-10-22T19:03:55.975Z,100828.47
2022-10-22T19:06:33.309Z,100821.41
2022-10-22T19:09:03.948Z,100825.47
2022-10-22T19:11:30.368Z,100819.13
2022-10-22T19:13:56.878Z,100815.97
2022-10-22T19:16:23.892Z,100811.91
2022-10-22T19:18:51.899Z,100812.59
2022-10-22T19:21:18.506Z,100814.50
2022-10-22T19:26:18.523Z,100823.56
2022-10-22T19:28:45.370Z,100820.03
2022-10-22T19:31:13.680Z,100821.16
2022-10-22T19:33:40.294Z,100824.53
2022-10-22T19:36:08.060Z,100826.16
2022-10-22T19:38:35.123Z,100825.66
2022-10-22T19:41:01.486Z,100825.22
2022-10-22T19:43:29.097Z,100825.66
2022-10-22T19:45:55.973Z,100828.63
2022-10-22T19:48:22.434Z,100829.31
2022-10-22T19:50:48.912Z,100832.47
2022-10-22T19:53:15.292Z,100823.66
2022-10-22T19:55:44.806Z,100827.91
2022-10-22T19:58:12.021Z,100817.69
2022-10-22T20:00:38.618Z,100818.47
2022-10-22T20:03:05.445Z,100817.34
2022-10-22T20:05:31.801Z,100812.88
2022-10-22T20:07:58.993Z,100814.66
2022-10-22T20:10:25.348Z,100818.41
2022-10-22T20:12:52.611Z,100816.03
2022-10-22T20:15:18.991Z,100806.06
2022-10-22T20:17:45.430Z,100812.59
2022-10-22T20:20:11.782Z,100811.56
2022-10-22T20:22:38.155Z,100810.44
2022-10-22T20:25:05.260Z,100812.91
2022-10-22T20:27:31.614Z,100812.91
2022-10-22T20:29:58.085Z,100815.28
2022-10-22T20:32:26.961Z,100815.97
2022-10-22T20:34:53.349Z,100820.06
2022-10-22T20:37:19.717Z,100829.53
2022-10-22T20:39:46.075Z,100828.44
2022-10-22T20:42:12.437Z,100827.44
2022-10-22T20:44:38.794Z,100828.94
2022-10-22T20:47:05.208Z,100822.13
2022-10-22T20:49:32.831Z,100817.03
2022-10-22T20:51:59.315Z,100813.56
2022-10-22T20:54:25.670Z,100820.94
2022-10-22T20:56:52.106Z,100813.47
2022-10-22T20:59:18.721Z,100820.56
2022-10-22T21:01:50.018Z,100827.00
2022-10-22T21:04:17.541Z,100826.25
2022-10-22T21:06:43.972Z,100828.63
2022-10-22T21:09:12.232Z,100834.03
2022-10-22T21:11:39.633Z,100834.44
2022-10-22T21:14:07.171Z,100830.94
2022-10-22T21:16:33.604Z,100835.44
2022-10-22T21:19:00.111Z,100836.31
2022-10-22T21:21:26.728Z,100840.09
2022-10-22T21:23:53.180Z,100829.50
2022-10-22T21:26:20.803Z,100831.78
2022-10-22T21:28:47.320Z,100828.06
2022-10-22T21:31:21.350Z,100837.84
2022-10-22T21:33:49.789Z,100833.66
2022-10-22T21:36:20.294Z,100834.72
2022-10-22T21:38:49.148Z,100834.41
2022-10-22T21:41:17.277Z,100836.34
2022-10-22T21:43:44.756Z,100831.16
2022-10-22T21:46:13.934Z,100831.53
2022-10-22T21:48:40.499Z,100833.16
2022-10-22T21:51:08.959Z,100832.38
2022-10-22T21:53:36.021Z,100828.34
2022-10-22T21:56:02.800Z,100823.28
2022-10-22T21:58:29.172Z,100821.56
2022-10-22T22:00:56.977Z,100831.63
2022-10-22T22:03:24.215Z,100825.97
2022-10-22T22:05:52.236Z,100830.66
2022-10-22T22:08:18.989Z,100825.56
2022-10-22T22:10:45.404Z,100831.06
2022-10-22T22:13:11.766Z,100821.72
2022-10-22T22:15:38.175Z,100828.25
2022-10-22T22:18:04.645Z,100828.25
2022-10-22T22:20:31.031Z,100834.44
2022-10-22T22:22:57.406Z,100838.38
2022-10-22T22:25:23.884Z,100827.88
2022-10-22T22:27:50.247Z,100827.31
2022-10-22T22:30:17.835Z,100821.03
2022-10-22T22:32:44.216Z,100820.59
2022-10-22T22:35:10.613Z,100825.97
2022-10-22T22:37:36.981Z,100823.88
2022-10-22T22:40:03.488Z,100821.94
2022-10-22T22:42:29.860Z,100820.28
2022-10-22T22:44:56.209Z,100823.75
2022-10-22T22:47:22.597Z,100820.19
2022-10-22T22:49:48.940Z,100816.13
2022-10-22T22:52:15.319Z,100811.16
2022-10-22T22:54:41.721Z,100803.03
2022-10-22T22:57:08.085Z,100808.56
2022-10-22T22:59:34.437Z,100805.97
2022-10-22T23:02:00.858Z,100795.25
2022-10-22T23:04:29.283Z,100793.09
2022-10-22T23:06:55.697Z,100788.00
2022-10-22T23:09:22.139Z,100788.59
2022-10-22T23:11:48.882Z,100790.75
2022-10-22T23:14:16.956Z,100794.56
2022-10-22T23:16:47.101Z,100788.22
2022-10-22T23:19:14.922Z,100790.03
2022-10-22T23:21:45.849Z,100785.25
2022-10-22T23:24:14.780Z,100786.41
2022-10-22T23:26:45.977Z,100793.38
2022-10-22T23:29:15.154Z,100795.53
2022-10-22T23:31:42.629Z,100790.22
2022-10-22T23:34:10.189Z,100785.81
2022-10-22T23:36:37.335Z,100782.81
2022-10-22T23:39:08.553Z,100776.81
2022-10-22T23:41:34.950Z,100776.28
2022-10-22T23:44:01.936Z,100780.78
2022-10-22T23:46:28.452Z,100779.78
2022-10-22T23:48:54.942Z,100778.78
2022-10-22T23:51:22.061Z,100775.19
2022-10-22T23:54:04.466Z,100778.56
2022-10-22T23:56:30.893Z,100777.78
2022-10-22T23:58:57.449Z,100773.28
